Latest Coastal Weather Observations for Yarram Airport

IDV60701

Issued at 7:02 pm EST Monday 24 April 2017 (issued every 10 minutes, with the page automatically refreshed every 10 minutes)

About coastal observations | Map of coastal stations | Coastal observations for VIC | Marine services | Other Formats
Station Details ID: 085151 Name: YARRAM AIRPORT Lat: -38.56 Lon: 146.75 Height: 17.9 m
Data from the previous 72 hours. | See also: Recent months at Yarram Airport
Date/Time
EST
Temp
°C
Wind Pressure Rain since
9am
mm
Weather Cloud Vis
km
Sea
Height
m
Swell
Dir  Spd
kts
Gust
kts
hPa Trend Height
m
Period
s
Dir
24/07:00pm 15.9 NE 6 7 1015.0 - 0.0 - - - - - - -
24/06:30pm 16.2 ENE 4 6 1014.8 - 0.0 - - - - - - -
24/06:00pm 16.3 ENE 5 6 1014.9 - 0.0 - - - - - - -
24/05:30pm 16.9 ENE 5 7 1014.9 - 0.0 - - - - - - -
24/05:00pm 18.0 E 6 8 1015.0 - 0.0 - - - - - - -
24/04:30pm 18.9 E 6 8 1015.2 - 0.0 - - - - - - -
24/04:00pm 19.7 SE 7 10 1015.2 - 0.0 - - - - - - -
24/03:30pm 21.0 CALM 0 0 1015.5 - 0.0 - - - - - - -
24/03:00pm 20.8 SSE 3 4 1015.6 - 0.0 - - - - - - -
24/02:30pm 20.9 SSE 3 5 1015.8 - 0.0 - - - - - - -
24/02:00pm 20.3 S 1 4 1016.0 - 0.0 - - - - - - -
24/01:30pm 19.5 CALM 0 0 1016.4 - 0.0 - - - - - - -
24/01:00pm 18.6 N 1 4 1017.0 - 0.0 - - - - - - -
24/12:30pm 17.9 CALM 0 0 1017.5 - 0.0 - - - - - - -
24/12:00pm 17.8 WNW 1 5 1018.2 - 0.0 - - - - - - -
24/11:30am 17.3 SW 4 6 1018.9 - 0.0 - - - - - - -
24/11:00am 16.1 WSW 5 6 1019.4 - 0.0 - - - - - - -
24/10:30am 16.3 CALM 0 5 1019.8 - 0.0 - - - - - - -
24/10:00am 16.0 NE 3 5 1019.9 - 0.0 - - - - - - -
24/09:30am 15.3 NNE 4 6 1020.3 - 0.0 - - - - - - -
24/09:00am 14.3 NE 5 6 1020.6 - 0.2 - - - - - - -
24/08:30am 13.3 NE 5 7 1020.8 - 0.2 - - - - - - -
24/08:00am 12.3 CALM 0 0 1020.9 - 0.2 - - - - - - -
24/07:30am 10.8 CALM 0 0 1021.0 - 0.2 - - - - - - -
24/07:00am 9.9 CALM 0 0 1021.0 - 0.2 - - - - - - -
24/06:30am 9.4 CALM 0 0 1020.8 - 0.2 - - - - - - -
24/06:00am 9.6 CALM 0 0 1020.8 - 0.2 - - - - - - -
24/05:30am 9.8 NE 1 4 1020.8 - 0.2 - - - - - - -
24/05:00am 10.6 NE 5 6 1020.8 - 0.2 - - - - - - -
24/04:30am 9.1 CALM 0 0 1020.9 - 0.2 - - - - - - -
24/04:00am 10.0 CALM 0 0 1020.8 - 0.2 - - - - - - -
24/03:30am 9.9 CALM 0 0 1021.0 - 0.2 - - - - - - -
24/03:00am 9.7 N 4 5 1021.0 - 0.2 - - - - - - -
24/02:30am 9.5 CALM 0 0 1021.2 - 0.2 - - - - - - -
24/02:00am 10.5 CALM 0 0 1021.6 - 0.2 - - - - - - -
24/01:30am 10.6 CALM 0 0 1021.8 - 0.2 - - - - - - -
24/01:00am 10.8 CALM 0 0 1022.2 - 0.2 - - - - - - -
24/12:30am 11.5 CALM 0 0 1022.3 - 0.2 - - - - - - -
24/12:00am 12.1 NNE 3 4 1022.6 - 0.2 - - - - - - -
 
Date/Time
EST
Temp
°C
Wind Pressure Rain since
9am
mm
Weather Cloud Vis
km
Sea
Height
m
Swell
Dir  Spd
kts
Gust
kts
hPa Trend Height
m
Period
s
Dir
23/11:30pm 11.8 N 4 4 1022.9 - 0.2 - - - - - - -
23/11:00pm 12.4 NNE 5 5 1023.1 - 0.2 - - - - - - -
23/10:30pm 12.9 NNE 7 7 1023.4 - 0.2 - - - - - - -
23/10:00pm 13.8 NNE 6 7 1023.5 - 0.2 - - - - - - -
23/09:30pm 13.4 NNE 6 7 1023.7 - 0.2 - - - - - - -
23/09:00pm 14.4 NE 4 5 1023.7 - 0.2 - - - - - - -
23/08:30pm 14.3 NE 4 5 1023.7 - 0.2 - - - - - - -
23/08:00pm 13.7 NNE 3 3 1023.5 - 0.2 - - - - - - -
23/07:30pm 13.3 N 4 4 1023.4 - 0.2 - - - - - - -
23/07:00pm 14.2 NNE 4 4 1023.2 - 0.2 - - - - - - -
23/06:30pm 15.4 NE 3 4 1023.0 - 0.2 - - - - - - -
23/06:00pm 16.8 ENE 3 5 1022.9 - 0.2 - - - - - - -
23/05:30pm 17.9 ESE 3 5 1022.7 - 0.2 - - - - - - -
23/05:00pm 18.4 SSE 4 5 1022.4 - 0.2 - - - - - - -
23/04:30pm 18.5 SE 5 6 1022.2 - 0.2 - - - - - - -
23/04:00pm 19.1 SE 7 9 1022.2 - 0.2 - - - - - - -
23/03:30pm 20.3 ESE 7 10 1022.0 - 0.2 - - - - - - -
23/03:00pm 21.0 E 6 7 1021.8 - 0.2 - - - - - - -
23/02:30pm 19.8 E 5 7 1021.9 - 0.2 - - - - - - -
23/02:00pm 20.3 CALM 0 0 1022.0 - 0.2 - - - - - - -
23/01:30pm 21.1 ENE 4 6 1022.2 - 0.2 - - - - - - -
23/01:00pm 19.8 SSE 6 8 1022.5 - 0.2 - - - - - - -
23/12:30pm 19.9 SSE 7 8 1022.9 - 0.2 - - - - - - -
23/12:00pm 20.7 NW 6 8 1023.2 - 0.2 Recent precip. - - - - - -
23/11:30am 20.5 WNW 5 7 1023.5 - 0.0 - - - - - - -
23/11:00am 19.7 NW 4 6 1023.9 - 0.0 - - - - - - -
23/10:30am 19.8 WNW 5 8 1023.9 - 0.0 - - - - - - -
23/10:00am 19.3 WNW 5 7 1023.9 - 0.0 - - - - - - -
23/09:30am 18.4 CALM 0 1 1024.0 - 0.0 - - - - - - -
23/09:00am 17.1 CALM 0 0 1024.2 - 0.8 - - - - - - -
23/08:30am 16.3 CALM 0 0 1024.2 - 0.8 - - - - - - -
23/08:00am 15.2 NNE 3 4 1024.1 - 0.8 - - - - - - -
23/07:30am 14.5 NNE 3 4 1023.9 - 0.8 - - - - - - -
23/07:00am 14.0 CALM 0 5 1023.6 - 0.8 - - - - - - -
23/06:30am 14.3 ENE 2 4 1023.3 - 0.8 - - - - - - -
23/06:00am 14.3 CALM 0 1 1023.2 - 0.8 - - - - - - -
23/05:30am 14.2 CALM 0 0 1022.9 - 0.8 - - - - - - -
23/05:00am 14.8 WSW 4 5 1022.7 - 0.8 - - - - - - -
23/04:30am 15.3 CALM 0 0 1022.6 - 0.8 - - - - - - -
23/04:00am 15.2 CALM 0 0 1022.5 - 0.8 - - - - - - -
23/03:30am 15.5 WSW 4 5 1022.5 - 0.8 - - - - - - -
23/03:00am 15.6 WNW 4 5 1022.8 - 0.8 - - - - - - -
23/02:30am 15.8 WNW 4 5 1022.8 - 0.8 - - - - - - -
23/02:00am 15.4 WNW 3 4 1022.9 - 0.8 - - - - - - -
23/01:30am 15.2 NW 4 4 1023.0 - 0.8 - - - - - - -
23/01:00am 15.5 CALM 0 0 1023.0 - 0.8 - - - - - - -
23/12:30am 15.8 NW 3 4 1023.1 - 0.8 - - - - - - -
23/12:00am 16.2 NE 5 7 1022.9 - 0.8 Recent precip. - - - - - -
 
Date/Time
EST
Temp
°C
Wind Pressure Rain since
9am
mm
Weather Cloud Vis
km
Sea
Height
m
Swell
Dir  Spd
kts
Gust
kts
hPa Trend Height
m
Period
s
Dir
22/11:30pm 16.4 NE 5 6 1023.1 - 0.8 - - - - - - -
22/11:00pm 16.4 CALM 0 0 1023.2 - 0.4 - - - - - - -
22/10:30pm 16.4 NNE 3 3 1023.3 - 0.4 - - - - - - -
22/10:00pm 16.3 SE 1 4 1023.4 - 0.4 - - - - - - -
22/09:30pm 16.3 E 3 4 1023.3 - 0.4 - - - - - - -
22/09:00pm 16.3 SE 2 4 1023.3 - 0.4 Rain - - - - - -
22/08:30pm 16.4 E 4 6 1023.2 - 0.0 - - - - - - -
22/08:00pm 16.0 ESE 4 4 1022.9 - 0.0 - - - - - - -
22/07:30pm 16.6 ENE 3 4 1022.7 - 0.0 - - - - - - -
22/07:00pm 17.0 NE 5 6 1022.5 - 0.0 - - - - - - -
22/06:30pm 17.4 NE 5 7 1022.5 - 0.0 - - - - - - -
22/06:00pm 18.0 NE 5 7 1022.2 - 0.0 - - - - - - -
22/05:30pm 18.4 ENE 5 8 1022.0 - 0.0 - - - - - - -
22/05:00pm 18.9 E 6 9 1021.8 - 0.0 - - - - - - -
22/04:30pm 19.9 E 6 9 1021.6 - 0.0 - - - - - - -
22/04:00pm 20.7 E 4 5 1021.5 - 0.0 - - - - - - -
22/03:30pm 20.7 E 4 6 1021.2 - 0.0 - - - - - - -
22/03:00pm 21.0 ESE 6 9 1021.2 - 0.0 - - - - - - -
22/02:30pm 21.2 ESE 6 7 1021.2 - 0.0 - - - - - - -
22/02:00pm 21.2 ESE 3 5 1021.4 - 0.0 - - - - - - -
22/01:30pm 20.7 CALM 0 3 1021.6 - 0.0 - - - - - - -
22/01:00pm 19.9 SE 3 5 1021.9 - 0.0 - - - - - - -
22/12:30pm 19.8 CALM 0 0 1022.3 - 0.0 - - - - - - -
22/12:00pm 19.7 CALM 0 0 1022.5 - 0.0 - - - - - - -
22/11:30am 19.6 CALM 0 0 1022.9 - 0.0 - - - - - - -
22/11:00am 19.2 N 2 4 1023.0 - 0.0 - - - - - - -
22/10:30am 18.9 NNE 4 5 1023.0 - 0.0 - - - - - - -
22/10:00am 18.0 NE 4 5 1023.1 - 0.0 - - - - - - -
22/09:30am 17.4 ENE 3 6 1023.3 - 0.0 - - - - - - -
22/09:00am 16.7 CALM 0 0 1023.3 - 2.6 Recent precip. - - - - - -
22/08:30am 16.4 SE 4 5 1023.0 - 2.6 - - - - - - -
22/08:00am 16.3 NE 4 5 1022.9 - 2.0 - - - - - - -
22/07:30am 15.5 ENE 3 4 1022.7 - 2.0 - - - - - - -
22/07:00am 15.2 NE 4 5 1022.5 - 2.0 - - - - - - -
22/06:30am 15.0 E 1 4 1022.2 - 2.0 - - - - - - -
22/06:00am 14.9 NNE 2 3 1022.1 - 2.0 - - - - - - -
22/05:30am 14.9 NNE 3 5 1021.9 - 2.0 - - - - - - -
22/05:00am 15.0 ENE 5 7 1021.7 - 2.0 - - - - - - -
22/04:30am 15.0 E 5 7 1021.7 - 2.0 - - - - - - -
22/04:00am 15.1 NNE 5 7 1021.9 - 1.6 - - - - - - -
22/03:30am 15.0 E 3 4 1021.7 - 1.4 - - - - - - -
22/03:00am 14.9 E 3 4 1021.7 - 1.4 - - - - - - -
22/02:30am 14.9 NE 3 4 1021.7 - 1.4 - - - - - - -
22/02:00am 15.1 CALM 0 0 1021.8 - 1.4 - - - - - - -
22/01:30am 15.4 NE 3 5 1022.0 - 1.4 - - - - - - -
22/01:00am 15.6 NNE 5 6 1022.1 - 1.4 - - - - - - -
22/12:30am 15.8 NE 4 6 1022.2 - 1.4 - - - - - - -
22/12:00am 15.9 NNE 7 8 1022.2 - 1.2 - - - - - - -
 
Date/Time
EST
Temp
°C
Wind Pressure Rain since
9am
mm
Weather Cloud Vis
km
Sea
Height
m
Swell
Dir  Spd
kts
Gust
kts
hPa Trend Height
m
Period
s
Dir
21/11:30pm 16.3 NNE 9 13 1022.2 - 1.2 - - - - - - -
21/11:00pm 16.2 NNE 8 9 1022.2 - 1.2 - - - - - - -
21/10:30pm 16.5 NNE 8 8 1022.2 - 1.0 - - - - - - -
21/10:00pm 17.4 N 7 8 1022.1 - 1.0 - - - - - - -
21/09:30pm 18.1 NNW 6 8 1022.1 - 1.0 - - - - - - -
21/09:00pm 18.9 NNW 9 13 1021.9 - 1.0 - - - - - - -
21/08:30pm 18.5 NNW 9 13 1021.8 - 1.0 - - - - - - -
21/08:00pm 18.1 N 7 8 1021.6 - 1.0 - - - - - - -
21/07:30pm 17.4 NNE 6 8 1021.5 - 1.0 - - - - - - -

Other Formats:

Comma delimited format used in spreadsheet applications
http://www.bom.gov.au/fwo/IDV60701/IDV60701.95890.axf

JavaScript Object Notation format (JSON) in row-major order
http://www.bom.gov.au/fwo/IDV60701/IDV60701.95890.json